sensor_id;sensor_type;location;lat;lon;timestamp;temperature;humidity
15099;DHT22;33900;53.640;9.942;2022-08-14T00:00:12;25.80;57.90
15099;DHT22;33900;53.640;9.942;2022-08-14T00:02:40;25.80;58.00
15099;DHT22;33900;53.640;9.942;2022-08-14T00:05:09;25.70;58.00
15099;DHT22;33900;53.640;9.942;2022-08-14T00:07:35;25.70;58.00
15099;DHT22;33900;53.640;9.942;2022-08-14T00:10:01;25.70;58.10
15099;DHT22;33900;53.640;9.942;2022-08-14T00:12:27;25.70;58.20
15099;DHT22;33900;53.640;9.942;2022-08-14T00:14:53;25.70;58.10
15099;DHT22;33900;53.640;9.942;2022-08-14T00:17:18;25.70;58.10
15099;DHT22;33900;53.640;9.942;2022-08-14T00:19:44;25.60;58.00
15099;DHT22;33900;53.640;9.942;2022-08-14T00:22:10;25.60;58.10
15099;DHT22;33900;53.640;9.942;2022-08-14T00:24:36;25.60;58.20
15099;DHT22;33900;53.640;9.942;2022-08-14T00:27:02;25.50;58.30
15099;DHT22;33900;53.640;9.942;2022-08-14T00:29:31;25.50;58.40
15099;DHT22;33900;53.640;9.942;2022-08-14T00:31:56;25.50;58.60
15099;DHT22;33900;53.640;9.942;2022-08-14T00:34:23;25.50;58.70
15099;DHT22;33900;53.640;9.942;2022-08-14T00:36:48;25.50;58.80
15099;DHT22;33900;53.640;9.942;2022-08-14T00:39:14;25.50;58.70
15099;DHT22;33900;53.640;9.942;2022-08-14T00:41:40;25.50;58.90
15099;DHT22;33900;53.640;9.942;2022-08-14T00:44:06;25.40;58.90
15099;DHT22;33900;53.640;9.942;2022-08-14T00:46:32;25.40;58.90
15099;DHT22;33900;53.640;9.942;2022-08-14T00:48:57;25.40;59.10
15099;DHT22;33900;53.640;9.942;2022-08-14T00:51:23;25.40;59.20
15099;DHT22;33900;53.640;9.942;2022-08-14T00:53:49;25.30;59.30
15099;DHT22;33900;53.640;9.942;2022-08-14T00:56:16;25.30;59.50
15099;DHT22;33900;53.640;9.942;2022-08-14T00:58:42;25.30;59.50
15099;DHT22;33900;53.640;9.942;2022-08-14T01:01:09;25.30;59.70
15099;DHT22;33900;53.640;9.942;2022-08-14T01:03:37;25.30;59.70
15099;DHT22;33900;53.640;9.942;2022-08-14T01:06:04;25.30;59.60
15099;DHT22;33900;53.640;9.942;2022-08-14T01:08:30;25.30;59.80
15099;DHT22;33900;53.640;9.942;2022-08-14T01:10:57;25.20;59.80
15099;DHT22;33900;53.640;9.942;2022-08-14T01:13:24;25.20;59.90
15099;DHT22;33900;53.640;9.942;2022-08-14T01:15:52;25.20;60.10
15099;DHT22;33900;53.640;9.942;2022-08-14T01:18:18;25.30;60.20
15099;DHT22;33900;53.640;9.942;2022-08-14T01:21:03;25.20;60.20
15099;DHT22;33900;53.640;9.942;2022-08-14T01:23:34;25.20;60.30
15099;DHT22;33900;53.640;9.942;2022-08-14T01:26:00;25.20;60.30
15099;DHT22;33900;53.640;9.942;2022-08-14T01:28:25;25.20;60.40
15099;DHT22;33900;53.640;9.942;2022-08-14T01:30:51;25.20;60.60
15099;DHT22;33900;53.640;9.942;2022-08-14T01:33:22;25.20;60.60
15099;DHT22;33900;53.640;9.942;2022-08-14T01:35:57;25.20;60.60
15099;DHT22;33900;53.640;9.942;2022-08-14T01:38:25;25.20;60.90
15099;DHT22;33900;53.640;9.942;2022-08-14T01:40:57;25.10;60.80
15099;DHT22;33900;53.640;9.942;2022-08-14T01:43:23;25.10;61.10
15099;DHT22;33900;53.640;9.942;2022-08-14T01:45:56;25.10;61.00
15099;DHT22;33900;53.640;9.942;2022-08-14T01:48:22;25.10;61.10
15099;DHT22;33900;53.640;9.942;2022-08-14T01:50:48;25.10;61.00
15099;DHT22;33900;53.640;9.942;2022-08-14T01:53:14;25.00;60.90
15099;DHT22;33900;53.640;9.942;2022-08-14T01:55:40;25.10;61.10
15099;DHT22;33900;53.640;9.942;2022-08-14T01:58:05;25.10;61.20
15099;DHT22;33900;53.640;9.942;2022-08-14T02:00:35;25.00;61.20
15099;DHT22;33900;53.640;9.942;2022-08-14T02:03:03;25.00;61.20
15099;DHT22;33900;53.640;9.942;2022-08-14T02:05:29;25.00;61.20
15099;DHT22;33900;53.640;9.942;2022-08-14T02:07:55;25.00;61.40
15099;DHT22;33900;53.640;9.942;2022-08-14T02:10:21;25.00;61.50
15099;DHT22;33900;53.640;9.942;2022-08-14T02:12:47;25.00;61.60
15099;DHT22;33900;53.640;9.942;2022-08-14T02:15:13;24.90;61.70
15099;DHT22;33900;53.640;9.942;2022-08-14T02:17:39;25.00;61.90
15099;DHT22;33900;53.640;9.942;2022-08-14T02:20:05;24.90;62.00
15099;DHT22;33900;53.640;9.942;2022-08-14T02:22:33;24.90;62.20
15099;DHT22;33900;53.640;9.942;2022-08-14T02:24:59;24.90;62.10
15099;DHT22;33900;53.640;9.942;2022-08-14T02:27:24;24.90;62.30
15099;DHT22;33900;53.640;9.942;2022-08-14T02:29:50;24.90;62.40
15099;DHT22;33900;53.640;9.942;2022-08-14T02:32:17;24.90;62.50
15099;DHT22;33900;53.640;9.942;2022-08-14T02:34:42;24.90;62.40
15099;DHT22;33900;53.640;9.942;2022-08-14T02:37:09;24.90;62.50
15099;DHT22;33900;53.640;9.942;2022-08-14T02:39:42;24.80;62.40
15099;DHT22;33900;53.640;9.942;2022-08-14T02:42:09;24.80;62.50
15099;DHT22;33900;53.640;9.942;2022-08-14T02:44:37;24.80;62.70
15099;DHT22;33900;53.640;9.942;2022-08-14T02:47:03;24.80;62.80
15099;DHT22;33900;53.640;9.942;2022-08-14T02:49:29;24.80;62.80
15099;DHT22;33900;53.640;9.942;2022-08-14T02:51:57;24.80;62.70
15099;DHT22;33900;53.640;9.942;2022-08-14T02:54:24;24.80;62.90
15099;DHT22;33900;53.640;9.942;2022-08-14T02:56:51;24.80;63.00
15099;DHT22;33900;53.640;9.942;2022-08-14T02:59:19;24.80;63.20
15099;DHT22;33900;53.640;9.942;2022-08-14T03:01:44;24.80;63.20
15099;DHT22;33900;53.640;9.942;2022-08-14T03:04:13;24.70;63.20
15099;DHT22;33900;53.640;9.942;2022-08-14T03:06:39;24.80;63.30
15099;DHT22;33900;53.640;9.942;2022-08-14T03:09:07;24.70;63.50
15099;DHT22;33900;53.640;9.942;2022-08-14T03:11:33;24.70;63.50
15099;DHT22;33900;53.640;9.942;2022-08-14T03:13:59;24.70;63.60
15099;DHT22;33900;53.640;9.942;2022-08-14T03:16:25;24.70;63.60
15099;DHT22;33900;53.640;9.942;2022-08-14T03:18:52;24.70;63.90
15099;DHT22;33900;53.640;9.942;2022-08-14T03:21:20;24.70;63.70
15099;DHT22;33900;53.640;9.942;2022-08-14T03:23:46;24.60;63.80
15099;DHT22;33900;53.640;9.942;2022-08-14T03:26:14;24.60;63.90
15099;DHT22;33900;53.640;9.942;2022-08-14T03:28:42;24.60;64.00
15099;DHT22;33900;53.640;9.942;2022-08-14T03:31:09;24.60;64.20
15099;DHT22;33900;53.640;9.942;2022-08-14T03:33:35;24.60;64.10
15099;DHT22;33900;53.640;9.942;2022-08-14T03:36:03;24.60;64.10
15099;DHT22;33900;53.640;9.942;2022-08-14T03:38:29;24.60;64.10
15099;DHT22;33900;53.640;9.942;2022-08-14T03:40:55;24.60;64.20
15099;DHT22;33900;53.640;9.942;2022-08-14T03:43:21;24.60;64.40
15099;DHT22;33900;53.640;9.942;2022-08-14T03:45:46;24.60;64.60
15099;DHT22;33900;53.640;9.942;2022-08-14T03:48:13;24.50;64.70
15099;DHT22;33900;53.640;9.942;2022-08-14T03:50:46;24.50;64.40
15099;DHT22;33900;53.640;9.942;2022-08-14T03:53:13;24.50;64.60
15099;DHT22;33900;53.640;9.942;2022-08-14T03:55:42;24.50;64.50
15099;DHT22;33900;53.640;9.942;2022-08-14T03:58:08;24.40;64.60
15099;DHT22;33900;53.640;9.942;2022-08-14T04:00:35;24.40;64.80
15099;DHT22;33900;53.640;9.942;2022-08-14T04:03:01;24.40;64.80
15099;DHT22;33900;53.640;9.942;2022-08-14T04:05:28;24.40;64.80
15099;DHT22;33900;53.640;9.942;2022-08-14T04:07:54;24.40;65.10
15099;DHT22;33900;53.640;9.942;2022-08-14T04:10:19;24.40;65.10
15099;DHT22;33900;53.640;9.942;2022-08-14T04:12:46;24.30;65.00
15099;DHT22;33900;53.640;9.942;2022-08-14T04:15:11;24.30;65.00
15099;DHT22;33900;53.640;9.942;2022-08-14T04:17:39;24.30;65.00
15099;DHT22;33900;53.640;9.942;2022-08-14T04:20:07;24.30;65.30
15099;DHT22;33900;53.640;9.942;2022-08-14T04:22:34;24.30;65.30
15099;DHT22;33900;53.640;9.942;2022-08-14T04:24:59;24.30;65.30
15099;DHT22;33900;53.640;9.942;2022-08-14T04:27:25;24.30;65.50
15099;DHT22;33900;53.640;9.942;2022-08-14T04:29:52;24.30;65.70
15099;DHT22;33900;53.640;9.942;2022-08-14T04:32:18;24.30;65.80
15099;DHT22;33900;53.640;9.942;2022-08-14T04:34:44;24.30;65.70
15099;DHT22;33900;53.640;9.942;2022-08-14T04:37:09;24.20;65.90
15099;DHT22;33900;53.640;9.942;2022-08-14T04:39:54;24.20;65.90
15099;DHT22;33900;53.640;9.942;2022-08-14T04:42:39;24.20;65.90
15099;DHT22;33900;53.640;9.942;2022-08-14T04:45:24;24.20;66.00
15099;DHT22;33900;53.640;9.942;2022-08-14T04:47:50;24.20;66.10
15099;DHT22;33900;53.640;9.942;2022-08-14T04:50:35;24.20;66.10
15099;DHT22;33900;53.640;9.942;2022-08-14T04:53:01;24.20;66.20
15099;DHT22;33900;53.640;9.942;2022-08-14T04:55:27;24.20;66.30
15099;DHT22;33900;53.640;9.942;2022-08-14T04:57:52;24.20;66.90
15099;DHT22;33900;53.640;9.942;2022-08-14T05:00:18;24.20;66.90
15099;DHT22;33900;53.640;9.942;2022-08-14T05:02:44;24.20;67.10
15099;DHT22;33900;53.640;9.942;2022-08-14T05:05:10;24.20;67.30
15099;DHT22;33900;53.640;9.942;2022-08-14T05:07:35;24.20;66.90
15099;DHT22;33900;53.640;9.942;2022-08-14T05:10:02;24.20;67.30
15099;DHT22;33900;53.640;9.942;2022-08-14T05:12:28;24.20;66.90
15099;DHT22;33900;53.640;9.942;2022-08-14T05:14:54;24.20;67.20
15099;DHT22;33900;53.640;9.942;2022-08-14T05:17:19;24.20;67.40
15099;DHT22;33900;53.640;9.942;2022-08-14T05:19:50;24.20;67.40
15099;DHT22;33900;53.640;9.942;2022-08-14T05:22:17;24.30;67.80
15099;DHT22;33900;53.640;9.942;2022-08-14T05:24:44;24.30;67.90
15099;DHT22;33900;53.640;9.942;2022-08-14T05:27:09;24.30;67.60
15099;DHT22;33900;53.640;9.942;2022-08-14T05:29:35;24.30;67.60
15099;DHT22;33900;53.640;9.942;2022-08-14T05:32:00;24.30;67.90
15099;DHT22;33900;53.640;9.942;2022-08-14T05:34:31;24.40;67.90
15099;DHT22;33900;53.640;9.942;2022-08-14T05:36:58;24.40;68.00
15099;DHT22;33900;53.640;9.942;2022-08-14T05:39:24;24.40;67.80
15099;DHT22;33900;53.640;9.942;2022-08-14T05:41:50;24.40;67.90
15099;DHT22;33900;53.640;9.942;2022-08-14T05:44:16;24.40;68.10
15099;DHT22;33900;53.640;9.942;2022-08-14T05:46:41;24.40;68.10
15099;DHT22;33900;53.640;9.942;2022-08-14T05:49:07;24.40;68.10
15099;DHT22;33900;53.640;9.942;2022-08-14T05:51:32;24.40;67.70
15099;DHT22;33900;53.640;9.942;2022-08-14T05:53:59;24.50;68.10
15099;DHT22;33900;53.640;9.942;2022-08-14T05:56:24;24.50;68.20
15099;DHT22;33900;53.640;9.942;2022-08-14T05:58:50;24.50;69.10
15099;DHT22;33900;53.640;9.942;2022-08-14T06:01:16;24.50;68.90
15099;DHT22;33900;53.640;9.942;2022-08-14T06:03:41;24.50;68.90
15099;DHT22;33900;53.640;9.942;2022-08-14T06:06:07;24.50;68.80
15099;DHT22;33900;53.640;9.942;2022-08-14T06:08:32;24.60;69.50
15099;DHT22;33900;53.640;9.942;2022-08-14T06:10:59;24.60;69.10
15099;DHT22;33900;53.640;9.942;2022-08-14T06:13:40;24.60;69.00
15099;DHT22;33900;53.640;9.942;2022-08-14T06:16:06;24.60;69.00
15099;DHT22;33900;53.640;9.942;2022-08-14T06:18:32;24.60;68.90
15099;DHT22;33900;53.640;9.942;2022-08-14T06:20:58;24.70;69.00
15099;DHT22;33900;53.640;9.942;2022-08-14T06:23:23;24.70;68.90
15099;DHT22;33900;53.640;9.942;2022-08-14T06:25:49;24.70;68.80
15099;DHT22;33900;53.640;9.942;2022-08-14T06:28:15;24.70;68.80
15099;DHT22;33900;53.640;9.942;2022-08-14T06:30:41;24.70;68.80
15099;DHT22;33900;53.640;9.942;2022-08-14T06:33:06;24.70;68.70
15099;DHT22;33900;53.640;9.942;2022-08-14T06:35:32;24.70;69.10
15099;DHT22;33900;53.640;9.942;2022-08-14T06:37:58;24.70;69.00
15099;DHT22;33900;53.640;9.942;2022-08-14T06:42:50;24.80;68.70
15099;DHT22;33900;53.640;9.942;2022-08-14T06:45:15;24.90;68.50
15099;DHT22;33900;53.640;9.942;2022-08-14T06:47:42;25.00;68.70
15099;DHT22;33900;53.640;9.942;2022-08-14T06:50:09;25.00;68.90
15099;DHT22;33900;53.640;9.942;2022-08-14T06:52:35;25.00;68.90
15099;DHT22;33900;53.640;9.942;2022-08-14T06:55:01;25.10;69.00
15099;DHT22;33900;53.640;9.942;2022-08-14T06:57:33;25.10;68.80
15099;DHT22;33900;53.640;9.942;2022-08-14T07:00:00;25.10;68.70
15099;DHT22;33900;53.640;9.942;2022-08-14T07:02:25;25.20;69.10
15099;DHT22;33900;53.640;9.942;2022-08-14T07:05:10;25.20;68.70
15099;DHT22;33900;53.640;9.942;2022-08-14T07:07:54;25.30;69.00
15099;DHT22;33900;53.640;9.942;2022-08-14T07:10:23;25.30;69.00
15099;DHT22;33900;53.640;9.942;2022-08-14T07:12:48;25.40;69.10
15099;DHT22;33900;53.640;9.942;2022-08-14T07:15:14;25.40;69.00
15099;DHT22;33900;53.640;9.942;2022-08-14T07:17:43;25.40;68.90
15099;DHT22;33900;53.640;9.942;2022-08-14T07:20:12;25.50;68.80
15099;DHT22;33900;53.640;9.942;2022-08-14T07:25:41;25.60;68.40
15099;DHT22;33900;53.640;9.942;2022-08-14T07:30:35;25.70;68.30
15099;DHT22;33900;53.640;9.942;2022-08-14T07:33:01;25.80;68.60
15099;DHT22;33900;53.640;9.942;2022-08-14T07:35:28;25.80;68.20
15099;DHT22;33900;53.640;9.942;2022-08-14T07:37:53;25.50;69.70
15099;DHT22;33900;53.640;9.942;2022-08-14T07:40:19;25.20;72.80
15099;DHT22;33900;53.640;9.942;2022-08-14T07:42:44;24.90;76.70
15099;DHT22;33900;53.640;9.942;2022-08-14T07:52:07;24.50;79.80
15099;DHT22;33900;53.640;9.942;2022-08-14T07:54:33;24.60;80.90
15099;DHT22;33900;53.640;9.942;2022-08-14T07:56:59;24.60;80.10
15099;DHT22;33900;53.640;9.942;2022-08-14T07:59:25;24.60;80.60
15099;DHT22;33900;53.640;9.942;2022-08-14T08:01:50;24.70;80.30
15099;DHT22;33900;53.640;9.942;2022-08-14T08:04:19;24.70;81.10
15099;DHT22;33900;53.640;9.942;2022-08-14T08:06:46;24.80;81.20
15099;DHT22;33900;53.640;9.942;2022-08-14T08:09:12;24.90;81.00
15099;DHT22;33900;53.640;9.942;2022-08-14T08:11:40;25.00;81.50
15099;DHT22;33900;53.640;9.942;2022-08-14T08:14:06;25.10;81.50
15099;DHT22;33900;53.640;9.942;2022-08-14T08:16:32;25.10;82.10
15099;DHT22;33900;53.640;9.942;2022-08-14T08:18:58;25.30;81.10
15099;DHT22;33900;53.640;9.942;2022-08-14T08:21:26;25.30;79.70
15099;DHT22;33900;53.640;9.942;2022-08-14T08:23:54;25.40;80.30
15099;DHT22;33900;53.640;9.942;2022-08-14T08:26:19;25.50;80.10
15099;DHT22;33900;53.640;9.942;2022-08-14T08:28:55;25.60;80.00
15099;DHT22;33900;53.640;9.942;2022-08-14T08:31:21;25.70;78.90
15099;DHT22;33900;53.640;9.942;2022-08-14T08:33:50;25.80;78.90
15099;DHT22;33900;53.640;9.942;2022-08-14T08:36:20;25.90;79.30
15099;DHT22;33900;53.640;9.942;2022-08-14T08:38:48;26.10;78.40
15099;DHT22;33900;53.640;9.942;2022-08-14T08:41:14;26.20;78.70
15099;DHT22;33900;53.640;9.942;2022-08-14T08:43:40;26.30;77.30
15099;DHT22;33900;53.640;9.942;2022-08-14T08:46:13;26.40;78.00
15099;DHT22;33900;53.640;9.942;2022-08-14T08:48:50;26.60;77.20
15099;DHT22;33900;53.640;9.942;2022-08-14T08:51:27;26.70;77.40
15099;DHT22;33900;53.640;9.942;2022-08-14T08:54:00;26.90;76.50
15099;DHT22;33900;53.640;9.942;2022-08-14T08:58:59;27.30;75.50
15099;DHT22;33900;53.640;9.942;2022-08-14T09:01:30;27.50;75.00
15099;DHT22;33900;53.640;9.942;2022-08-14T09:04:02;27.60;74.50
15099;DHT22;33900;53.640;9.942;2022-08-14T09:06:28;27.70;74.50
15099;DHT22;33900;53.640;9.942;2022-08-14T09:08:53;27.80;74.10
15099;DHT22;33900;53.640;9.942;2022-08-14T09:11:19;28.00;73.40
15099;DHT22;33900;53.640;9.942;2022-08-14T09:13:44;28.00;73.10
15099;DHT22;33900;53.640;9.942;2022-08-14T09:16:10;28.10;71.50
15099;DHT22;33900;53.640;9.942;2022-08-14T09:18:36;28.10;71.30
15099;DHT22;33900;53.640;9.942;2022-08-14T09:21:04;28.30;70.60
15099;DHT22;33900;53.640;9.942;2022-08-14T09:23:32;28.40;68.60
15099;DHT22;33900;53.640;9.942;2022-08-14T09:25:57;28.40;67.30
15099;DHT22;33900;53.640;9.942;2022-08-14T09:28:23;28.50;66.80
15099;DHT22;33900;53.640;9.942;2022-08-14T09:30:53;28.50;66.70
15099;DHT22;33900;53.640;9.942;2022-08-14T09:43:58;28.70;64.50
15099;DHT22;33900;53.640;9.942;2022-08-14T09:46:27;28.70;64.70
15099;DHT22;33900;53.640;9.942;2022-08-14T09:51:24;28.70;64.60
15099;DHT22;33900;53.640;9.942;2022-08-14T09:54:03;28.70;64.80
15099;DHT22;33900;53.640;9.942;2022-08-14T09:56:42;28.80;64.80
15099;DHT22;33900;53.640;9.942;2022-08-14T09:59:12;28.80;64.20
15099;DHT22;33900;53.640;9.942;2022-08-14T10:01:38;28.80;64.00
15099;DHT22;33900;53.640;9.942;2022-08-14T10:04:05;28.80;63.60
15099;DHT22;33900;53.640;9.942;2022-08-14T10:06:31;28.80;62.50
15099;DHT22;33900;53.640;9.942;2022-08-14T10:09:09;28.80;62.40
15099;DHT22;33900;53.640;9.942;2022-08-14T10:11:36;28.80;62.10
15099;DHT22;33900;53.640;9.942;2022-08-14T10:16:40;28.80;62.90
15099;DHT22;33900;53.640;9.942;2022-08-14T10:19:07;28.80;63.10
15099;DHT22;33900;53.640;9.942;2022-08-14T10:21:33;28.70;62.80
15099;DHT22;33900;53.640;9.942;2022-08-14T10:23:59;28.70;62.60
15099;DHT22;33900;53.640;9.942;2022-08-14T10:26:25;28.70;62.60
15099;DHT22;33900;53.640;9.942;2022-08-14T10:28:51;28.70;61.70
15099;DHT22;33900;53.640;9.942;2022-08-14T10:31:18;28.70;62.90
15099;DHT22;33900;53.640;9.942;2022-08-14T10:33:44;28.70;61.90
15099;DHT22;33900;53.640;9.942;2022-08-14T10:36:34;28.70;61.80
15099;DHT22;33900;53.640;9.942;2022-08-14T10:39:01;28.70;61.60
15099;DHT22;33900;53.640;9.942;2022-08-14T10:41:34;28.70;61.70
15099;DHT22;33900;53.640;9.942;2022-08-14T10:44:07;28.80;61.80
15099;DHT22;33900;53.640;9.942;2022-08-14T10:46:40;28.90;61.50
15099;DHT22;33900;53.640;9.942;2022-08-14T10:49:15;28.90;61.10
15099;DHT22;33900;53.640;9.942;2022-08-14T10:51:41;28.90;60.90
15099;DHT22;33900;53.640;9.942;2022-08-14T10:54:09;29.00;61.00
15099;DHT22;33900;53.640;9.942;2022-08-14T10:56:35;29.00;59.80
15099;DHT22;33900;53.640;9.942;2022-08-14T10:59:02;29.10;60.10
15099;DHT22;33900;53.640;9.942;2022-08-14T11:01:32;29.10;59.60
15099;DHT22;33900;53.640;9.942;2022-08-14T11:03:58;29.10;59.00
15099;DHT22;33900;53.640;9.942;2022-08-14T11:06:24;29.10;59.20
15099;DHT22;33900;53.640;9.942;2022-08-14T11:08:50;29.10;58.60
15099;DHT22;33900;53.640;9.942;2022-08-14T11:11:16;29.10;58.40
15099;DHT22;33900;53.640;9.942;2022-08-14T11:13:43;29.00;58.40
15099;DHT22;33900;53.640;9.942;2022-08-14T11:16:11;29.00;58.50
15099;DHT22;33900;53.640;9.942;2022-08-14T11:18:37;29.00;58.90
15099;DHT22;33900;53.640;9.942;2022-08-14T11:21:04;28.90;59.20
15099;DHT22;33900;53.640;9.942;2022-08-14T11:23:33;28.90;59.40
15099;DHT22;33900;53.640;9.942;2022-08-14T11:26:00;28.90;59.50
15099;DHT22;33900;53.640;9.942;2022-08-14T11:28:27;28.90;59.60
15099;DHT22;33900;53.640;9.942;2022-08-14T11:30:53;28.90;59.50
15099;DHT22;33900;53.640;9.942;2022-08-14T11:33:21;28.90;59.60
15099;DHT22;33900;53.640;9.942;2022-08-14T11:35:48;28.80;59.40
15099;DHT22;33900;53.640;9.942;2022-08-14T11:38:14;28.80;59.50
15099;DHT22;33900;53.640;9.942;2022-08-14T11:40:41;28.80;59.70
15099;DHT22;33900;53.640;9.942;2022-08-14T11:43:10;28.90;59.90
15099;DHT22;33900;53.640;9.942;2022-08-14T11:45:36;28.90;60.10
15099;DHT22;33900;53.640;9.942;2022-08-14T11:48:22;28.90;59.90
15099;DHT22;33900;53.640;9.942;2022-08-14T11:50:48;28.90;60.00
15099;DHT22;33900;53.640;9.942;2022-08-14T11:53:27;28.90;60.10
15099;DHT22;33900;53.640;9.942;2022-08-14T11:55:59;28.90;60.00
15099;DHT22;33900;53.640;9.942;2022-08-14T11:58:27;28.80;60.00
15099;DHT22;33900;53.640;9.942;2022-08-14T12:00:54;28.80;60.00
15099;DHT22;33900;53.640;9.942;2022-08-14T12:03:33;28.90;60.10
15099;DHT22;33900;53.640;9.942;2022-08-14T12:06:03;28.80;60.10
15099;DHT22;33900;53.640;9.942;2022-08-14T12:08:31;28.90;60.10
15099;DHT22;33900;53.640;9.942;2022-08-14T12:10:57;28.90;59.80
15099;DHT22;33900;53.640;9.942;2022-08-14T12:13:27;28.90;59.80
15099;DHT22;33900;53.640;9.942;2022-08-14T12:15:59;28.90;59.80
15099;DHT22;33900;53.640;9.942;2022-08-14T12:18:28;28.80;59.90
15099;DHT22;33900;53.640;9.942;2022-08-14T12:20:54;28.90;59.90
15099;DHT22;33900;53.640;9.942;2022-08-14T12:23:21;28.90;60.00
15099;DHT22;33900;53.640;9.942;2022-08-14T12:25:47;28.90;59.90
15099;DHT22;33900;53.640;9.942;2022-08-14T12:28:13;28.80;59.80
15099;DHT22;33900;53.640;9.942;2022-08-14T12:30:41;28.90;59.90
15099;DHT22;33900;53.640;9.942;2022-08-14T12:33:27;28.90;59.90
15099;DHT22;33900;53.640;9.942;2022-08-14T12:35:55;28.90;59.70
15099;DHT22;33900;53.640;9.942;2022-08-14T12:40:57;28.90;59.70
15099;DHT22;33900;53.640;9.942;2022-08-14T12:43:22;28.90;59.70
15099;DHT22;33900;53.640;9.942;2022-08-14T12:45:50;28.90;59.20
15099;DHT22;33900;53.640;9.942;2022-08-14T12:48:16;28.90;59.40
15099;DHT22;33900;53.640;9.942;2022-08-14T12:50:43;28.90;59.60
15099;DHT22;33900;53.640;9.942;2022-08-14T12:53:10;29.00;59.70
15099;DHT22;33900;53.640;9.942;2022-08-14T12:55:36;29.10;59.80
15099;DHT22;33900;53.640;9.942;2022-08-14T12:58:05;29.30;59.70
15099;DHT22;33900;53.640;9.942;2022-08-14T13:00:36;29.40;59.50
15099;DHT22;33900;53.640;9.942;2022-08-14T13:03:03;29.50;59.50
15099;DHT22;33900;53.640;9.942;2022-08-14T13:05:30;29.60;59.40
15099;DHT22;33900;53.640;9.942;2022-08-14T13:07:57;29.70;59.30
15099;DHT22;33900;53.640;9.942;2022-08-14T13:10:23;29.80;59.00
15099;DHT22;33900;53.640;9.942;2022-08-14T13:12:50;30.00;59.00
15099;DHT22;33900;53.640;9.942;2022-08-14T13:15:16;30.10;58.90
15099;DHT22;33900;53.640;9.942;2022-08-14T13:17:44;30.20;58.70
15099;DHT22;33900;53.640;9.942;2022-08-14T13:20:11;30.30;58.70
15099;DHT22;33900;53.640;9.942;2022-08-14T13:22:37;30.40;58.70
15099;DHT22;33900;53.640;9.942;2022-08-14T13:25:06;30.50;58.30
15099;DHT22;33900;53.640;9.942;2022-08-14T13:27:32;30.50;58.30
15099;DHT22;33900;53.640;9.942;2022-08-14T13:29:58;30.60;58.50
15099;DHT22;33900;53.640;9.942;2022-08-14T13:32:25;30.70;58.60
15099;DHT22;33900;53.640;9.942;2022-08-14T13:34:51;30.80;58.30
15099;DHT22;33900;53.640;9.942;2022-08-14T13:37:17;30.80;58.00
15099;DHT22;33900;53.640;9.942;2022-08-14T13:39:45;30.90;57.00
15099;DHT22;33900;53.640;9.942;2022-08-14T13:42:11;31.00;56.70
15099;DHT22;33900;53.640;9.942;2022-08-14T13:44:39;31.00;56.60
15099;DHT22;33900;53.640;9.942;2022-08-14T13:47:05;31.00;56.00
15099;DHT22;33900;53.640;9.942;2022-08-14T13:49:31;31.00;55.70
15099;DHT22;33900;53.640;9.942;2022-08-14T13:51:57;31.00;55.70
15099;DHT22;33900;53.640;9.942;2022-08-14T13:54:26;30.90;55.70
15099;DHT22;33900;53.640;9.942;2022-08-14T13:56:54;30.90;55.00
15099;DHT22;33900;53.640;9.942;2022-08-14T13:59:22;30.80;55.00
15099;DHT22;33900;53.640;9.942;2022-08-14T14:01:48;30.80;54.60
15099;DHT22;33900;53.640;9.942;2022-08-14T14:04:15;30.70;54.70
15099;DHT22;33900;53.640;9.942;2022-08-14T14:06:42;30.70;55.40
15099;DHT22;33900;53.640;9.942;2022-08-14T14:09:08;30.70;56.20
15099;DHT22;33900;53.640;9.942;2022-08-14T14:11:35;30.70;56.40
15099;DHT22;33900;53.640;9.942;2022-08-14T14:14:00;30.80;56.80
15099;DHT22;33900;53.640;9.942;2022-08-14T14:16:26;30.80;57.10
15099;DHT22;33900;53.640;9.942;2022-08-14T14:18:53;30.80;57.10
15099;DHT22;33900;53.640;9.942;2022-08-14T14:21:25;30.70;57.10
15099;DHT22;33900;53.640;9.942;2022-08-14T14:23:52;30.70;57.60
15099;DHT22;33900;53.640;9.942;2022-08-14T14:26:18;30.70;57.50
15099;DHT22;33900;53.640;9.942;2022-08-14T14:28:48;30.70;57.60
15099;DHT22;33900;53.640;9.942;2022-08-14T14:31:19;30.70;57.60
15099;DHT22;33900;53.640;9.942;2022-08-14T14:33:49;30.70;57.60
15099;DHT22;33900;53.640;9.942;2022-08-14T14:36:22;30.60;57.40
15099;DHT22;33900;53.640;9.942;2022-08-14T14:38:54;30.60;57.30
15099;DHT22;33900;53.640;9.942;2022-08-14T14:41:21;30.70;57.40
15099;DHT22;33900;53.640;9.942;2022-08-14T14:43:48;30.60;57.40
15099;DHT22;33900;53.640;9.942;2022-08-14T14:46:14;30.70;58.20
15099;DHT22;33900;53.640;9.942;2022-08-14T14:48:40;30.70;57.10
15099;DHT22;33900;53.640;9.942;2022-08-14T14:51:09;30.70;56.80
15099;DHT22;33900;53.640;9.942;2022-08-14T14:53:35;30.80;56.40
15099;DHT22;33900;53.640;9.942;2022-08-14T14:56:03;30.80;56.30
15099;DHT22;33900;53.640;9.942;2022-08-14T14:58:28;30.70;56.10
15099;DHT22;33900;53.640;9.942;2022-08-14T15:00:55;30.70;55.90
15099;DHT22;33900;53.640;9.942;2022-08-14T15:03:22;30.70;55.80
15099;DHT22;33900;53.640;9.942;2022-08-14T15:05:48;30.80;55.60
15099;DHT22;33900;53.640;9.942;2022-08-14T15:08:15;30.80;55.50
15099;DHT22;33900;53.640;9.942;2022-08-14T15:10:40;30.80;55.70
15099;DHT22;33900;53.640;9.942;2022-08-14T15:13:06;30.80;55.40
15099;DHT22;33900;53.640;9.942;2022-08-14T15:15:32;30.80;55.50
15099;DHT22;33900;53.640;9.942;2022-08-14T15:17:58;30.90;55.40
15099;DHT22;33900;53.640;9.942;2022-08-14T15:20:24;30.90;55.10
15099;DHT22;33900;53.640;9.942;2022-08-14T15:22:50;30.80;54.90
15099;DHT22;33900;53.640;9.942;2022-08-14T15:25:15;30.80;55.10
15099;DHT22;33900;53.640;9.942;2022-08-14T15:27:41;30.80;55.20
15099;DHT22;33900;53.640;9.942;2022-08-14T15:30:07;30.70;55.30
15099;DHT22;33900;53.640;9.942;2022-08-14T15:32:33;30.70;55.40
15099;DHT22;33900;53.640;9.942;2022-08-14T15:34:59;30.70;55.30
15099;DHT22;33900;53.640;9.942;2022-08-14T15:37:26;30.80;55.50
15099;DHT22;33900;53.640;9.942;2022-08-14T15:39:52;30.70;55.40
15099;DHT22;33900;53.640;9.942;2022-08-14T15:42:17;30.70;55.10
15099;DHT22;33900;53.640;9.942;2022-08-14T15:44:45;30.70;55.00
15099;DHT22;33900;53.640;9.942;2022-08-14T15:47:10;30.70;54.90
15099;DHT22;33900;53.640;9.942;2022-08-14T15:49:36;30.70;55.00
15099;DHT22;33900;53.640;9.942;2022-08-14T15:52:03;30.60;54.80
15099;DHT22;33900;53.640;9.942;2022-08-14T15:54:29;30.60;55.00
15099;DHT22;33900;53.640;9.942;2022-08-14T15:57:03;30.60;54.90
15099;DHT22;33900;53.640;9.942;2022-08-14T15:59:30;30.60;54.80
15099;DHT22;33900;53.640;9.942;2022-08-14T16:02:16;30.60;54.70
15099;DHT22;33900;53.640;9.942;2022-08-14T16:04:42;30.70;54.80
15099;DHT22;33900;53.640;9.942;2022-08-14T16:07:08;30.70;54.80